sensor_id;sensor_type;location;lat;lon;timestamp;P1;durP1;ratioP1;P2;durP2;ratioP2
57249;SDS011;43102;52.014;-0.680;2023-04-15T00:00:00;6.00;;;4.70;;
57249;SDS011;43102;52.014;-0.680;2023-04-15T00:01:00;6.00;;;4.70;;
57249;SDS011;43102;52.014;-0.680;2023-04-15T00:02:02;6.00;;;4.70;;
57249;SDS011;43102;52.014;-0.680;2023-04-15T00:03:01;6.00;;;4.70;;
57249;SDS011;43102;52.014;-0.680;2023-04-15T00:04:00;6.00;;;4.70;;
57249;SDS011;43102;52.014;-0.680;2023-04-15T00:05:00;6.00;;;4.70;;
57249;SDS011;43102;52.014;-0.680;2023-04-15T00:06:00;6.00;;;4.70;;
57249;SDS011;43102;52.014;-0.680;2023-04-15T00:07:01;6.00;;;4.70;;
57249;SDS011;43102;52.014;-0.680;2023-04-15T00:08:00;6.00;;;4.70;;
57249;SDS011;43102;52.014;-0.680;2023-04-15T00:09:01;6.00;;;4.70;;
57249;SDS011;43102;52.014;-0.680;2023-04-15T00:10:01;6.00;;;4.70;;
57249;SDS011;43102;52.014;-0.680;2023-04-15T00:11:04;6.00;;;4.70;;
57249;SDS011;43102;52.014;-0.680;2023-04-15T00:12:00;6.00;;;4.70;;
57249;SDS011;43102;52.014;-0.680;2023-04-15T00:13:01;6.00;;;4.70;;
57249;SDS011;43102;52.014;-0.680;2023-04-15T00:14:00;6.00;;;4.70;;
57249;SDS011;43102;52.014;-0.680;2023-04-15T00:15:01;8.80;;;7.00;;
57249;SDS011;43102;52.014;-0.680;2023-04-15T00:16:01;8.80;;;7.00;;
57249;SDS011;43102;52.014;-0.680;2023-04-15T00:17:00;8.80;;;7.00;;
57249;SDS011;43102;52.014;-0.680;2023-04-15T00:18:01;8.80;;;7.00;;
57249;SDS011;43102;52.014;-0.680;2023-04-15T00:19:01;8.80;;;7.00;;
57249;SDS011;43102;52.014;-0.680;2023-04-15T00:20:00;8.80;;;7.00;;
57249;SDS011;43102;52.014;-0.680;2023-04-15T00:21:00;8.80;;;7.00;;
57249;SDS011;43102;52.014;-0.680;2023-04-15T00:22:00;8.80;;;7.00;;
57249;SDS011;43102;52.014;-0.680;2023-04-15T00:23:01;8.80;;;7.00;;
57249;SDS011;43102;52.014;-0.680;2023-04-15T00:24:00;8.80;;;7.00;;
57249;SDS011;43102;52.014;-0.680;2023-04-15T00:25:01;8.80;;;7.00;;
57249;SDS011;43102;52.014;-0.680;2023-04-15T00:26:00;8.80;;;7.00;;
57249;SDS011;43102;52.014;-0.680;2023-04-15T00:27:00;8.80;;;7.00;;
57249;SDS011;43102;52.014;-0.680;2023-04-15T00:28:00;8.80;;;7.00;;
57249;SDS011;43102;52.014;-0.680;2023-04-15T00:29:01;8.80;;;7.00;;
57249;SDS011;43102;52.014;-0.680;2023-04-15T00:30:00;8.80;;;7.00;;
57249;SDS011;43102;52.014;-0.680;2023-04-15T00:31:00;8.80;;;7.00;;
57249;SDS011;43102;52.014;-0.680;2023-04-15T00:32:00;8.80;;;7.00;;
57249;SDS011;43102;52.014;-0.680;2023-04-15T00:33:02;8.80;;;7.00;;
57249;SDS011;43102;52.014;-0.680;2023-04-15T00:34:01;8.80;;;7.00;;
57249;SDS011;43102;52.014;-0.680;2023-04-15T00:35:01;8.80;;;7.00;;
57249;SDS011;43102;52.014;-0.680;2023-04-15T00:36:00;8.80;;;7.00;;
57249;SDS011;43102;52.014;-0.680;2023-04-15T00:37:00;8.80;;;7.00;;
57249;SDS011;43102;52.014;-0.680;2023-04-15T00:38:00;8.80;;;7.00;;
57249;SDS011;43102;52.014;-0.680;2023-04-15T00:39:02;8.80;;;7.00;;
57249;SDS011;43102;52.014;-0.680;2023-04-15T00:40:00;8.80;;;7.00;;
57249;SDS011;43102;52.014;-0.680;2023-04-15T00:41:01;8.80;;;7.00;;
57249;SDS011;43102;52.014;-0.680;2023-04-15T00:42:01;8.80;;;7.00;;
57249;SDS011;43102;52.014;-0.680;2023-04-15T00:43:01;8.80;;;7.00;;
57249;SDS011;43102;52.014;-0.680;2023-04-15T00:44:01;8.80;;;7.00;;
57249;SDS011;43102;52.014;-0.680;2023-04-15T00:45:00;7.00;;;5.40;;
57249;SDS011;43102;52.014;-0.680;2023-04-15T00:46:03;7.00;;;5.40;;
57249;SDS011;43102;52.014;-0.680;2023-04-15T00:47:01;7.00;;;5.40;;
57249;SDS011;43102;52.014;-0.680;2023-04-15T00:48:01;7.00;;;5.40;;
57249;SDS011;43102;52.014;-0.680;2023-04-15T00:49:02;7.00;;;5.40;;
57249;SDS011;43102;52.014;-0.680;2023-04-15T00:50:00;7.00;;;5.40;;
57249;SDS011;43102;52.014;-0.680;2023-04-15T00:51:00;7.00;;;5.40;;
57249;SDS011;43102;52.014;-0.680;2023-04-15T00:52:00;7.00;;;5.40;;
57249;SDS011;43102;52.014;-0.680;2023-04-15T00:53:00;7.00;;;5.40;;
57249;SDS011;43102;52.014;-0.680;2023-04-15T00:54:02;7.00;;;5.40;;
57249;SDS011;43102;52.014;-0.680;2023-04-15T00:55:01;7.00;;;5.40;;
57249;SDS011;43102;52.014;-0.680;2023-04-15T00:56:00;7.00;;;5.40;;
57249;SDS011;43102;52.014;-0.680;2023-04-15T00:57:00;7.00;;;5.40;;
57249;SDS011;43102;52.014;-0.680;2023-04-15T00:58:00;7.00;;;5.40;;
57249;SDS011;43102;52.014;-0.680;2023-04-15T00:59:01;7.00;;;5.40;;
57249;SDS011;43102;52.014;-0.680;2023-04-15T01:00:00;7.00;;;5.40;;
57249;SDS011;43102;52.014;-0.680;2023-04-15T01:01:01;7.00;;;5.40;;
57249;SDS011;43102;52.014;-0.680;2023-04-15T01:02:00;7.00;;;5.40;;
57249;SDS011;43102;52.014;-0.680;2023-04-15T01:03:00;7.00;;;5.40;;
57249;SDS011;43102;52.014;-0.680;2023-04-15T01:04:00;7.00;;;5.40;;
57249;SDS011;43102;52.014;-0.680;2023-04-15T01:05:00;7.00;;;5.40;;
57249;SDS011;43102;52.014;-0.680;2023-04-15T01:06:04;7.00;;;5.40;;
57249;SDS011;43102;52.014;-0.680;2023-04-15T01:07:01;7.00;;;5.40;;
57249;SDS011;43102;52.014;-0.680;2023-04-15T01:08:01;7.00;;;5.40;;
57249;SDS011;43102;52.014;-0.680;2023-04-15T01:09:01;7.00;;;5.40;;
57249;SDS011;43102;52.014;-0.680;2023-04-15T01:10:02;7.00;;;5.40;;
57249;SDS011;43102;52.014;-0.680;2023-04-15T01:11:02;7.00;;;5.40;;
57249;SDS011;43102;52.014;-0.680;2023-04-15T01:12:01;7.00;;;5.40;;
57249;SDS011;43102;52.014;-0.680;2023-04-15T01:13:02;7.00;;;5.40;;
57249;SDS011;43102;52.014;-0.680;2023-04-15T01:14:00;7.00;;;5.40;;
57249;SDS011;43102;52.014;-0.680;2023-04-15T01:15:01;6.90;;;5.70;;
57249;SDS011;43102;52.014;-0.680;2023-04-15T01:16:01;6.90;;;5.70;;
57249;SDS011;43102;52.014;-0.680;2023-04-15T01:17:01;6.90;;;5.70;;
57249;SDS011;43102;52.014;-0.680;2023-04-15T01:18:02;6.90;;;5.70;;
57249;SDS011;43102;52.014;-0.680;2023-04-15T01:19:01;6.90;;;5.70;;
57249;SDS011;43102;52.014;-0.680;2023-04-15T01:20:00;6.90;;;5.70;;
57249;SDS011;43102;52.014;-0.680;2023-04-15T01:21:02;6.90;;;5.70;;
57249;SDS011;43102;52.014;-0.680;2023-04-15T01:22:02;6.90;;;5.70;;
57249;SDS011;43102;52.014;-0.680;2023-04-15T01:23:00;6.90;;;5.70;;
57249;SDS011;43102;52.014;-0.680;2023-04-15T01:24:01;6.90;;;5.70;;
57249;SDS011;43102;52.014;-0.680;2023-04-15T01:25:05;6.90;;;5.70;;
57249;SDS011;43102;52.014;-0.680;2023-04-15T01:26:00;6.90;;;5.70;;
57249;SDS011;43102;52.014;-0.680;2023-04-15T01:27:00;6.90;;;5.70;;
57249;SDS011;43102;52.014;-0.680;2023-04-15T01:28:01;6.90;;;5.70;;
57249;SDS011;43102;52.014;-0.680;2023-04-15T01:29:00;6.90;;;5.70;;
57249;SDS011;43102;52.014;-0.680;2023-04-15T01:30:01;6.90;;;5.70;;
57249;SDS011;43102;52.014;-0.680;2023-04-15T01:31:10;6.90;;;5.70;;
57249;SDS011;43102;52.014;-0.680;2023-04-15T01:32:00;6.90;;;5.70;;
57249;SDS011;43102;52.014;-0.680;2023-04-15T01:33:00;6.90;;;5.70;;
57249;SDS011;43102;52.014;-0.680;2023-04-15T01:34:01;6.90;;;5.70;;
57249;SDS011;43102;52.014;-0.680;2023-04-15T01:35:01;6.90;;;5.70;;
57249;SDS011;43102;52.014;-0.680;2023-04-15T01:36:00;6.90;;;5.70;;
57249;SDS011;43102;52.014;-0.680;2023-04-15T01:37:00;6.90;;;5.70;;
57249;SDS011;43102;52.014;-0.680;2023-04-15T01:38:07;6.90;;;5.70;;
57249;SDS011;43102;52.014;-0.680;2023-04-15T01:39:00;6.90;;;5.70;;
57249;SDS011;43102;52.014;-0.680;2023-04-15T01:40:00;6.90;;;5.70;;
57249;SDS011;43102;52.014;-0.680;2023-04-15T01:41:01;6.90;;;5.70;;
57249;SDS011;43102;52.014;-0.680;2023-04-15T01:42:00;6.90;;;5.70;;
57249;SDS011;43102;52.014;-0.680;2023-04-15T01:43:01;6.90;;;5.70;;
57249;SDS011;43102;52.014;-0.680;2023-04-15T01:44:00;6.90;;;5.70;;
57249;SDS011;43102;52.014;-0.680;2023-04-15T01:45:00;6.00;;;4.40;;
57249;SDS011;43102;52.014;-0.680;2023-04-15T01:46:00;6.00;;;4.40;;
57249;SDS011;43102;52.014;-0.680;2023-04-15T01:47:00;6.00;;;4.40;;
57249;SDS011;43102;52.014;-0.680;2023-04-15T01:48:01;6.00;;;4.40;;
57249;SDS011;43102;52.014;-0.680;2023-04-15T01:49:01;6.00;;;4.40;;
57249;SDS011;43102;52.014;-0.680;2023-04-15T01:50:00;6.00;;;4.40;;
57249;SDS011;43102;52.014;-0.680;2023-04-15T01:51:01;6.00;;;4.40;;
57249;SDS011;43102;52.014;-0.680;2023-04-15T01:52:00;6.00;;;4.40;;
57249;SDS011;43102;52.014;-0.680;2023-04-15T01:53:00;6.00;;;4.40;;
57249;SDS011;43102;52.014;-0.680;2023-04-15T01:54:00;6.00;;;4.40;;
57249;SDS011;43102;52.014;-0.680;2023-04-15T01:55:00;6.00;;;4.40;;
57249;SDS011;43102;52.014;-0.680;2023-04-15T01:56:00;6.00;;;4.40;;
57249;SDS011;43102;52.014;-0.680;2023-04-15T01:57:01;6.00;;;4.40;;
57249;SDS011;43102;52.014;-0.680;2023-04-15T01:58:00;6.00;;;4.40;;
57249;SDS011;43102;52.014;-0.680;2023-04-15T01:59:00;6.00;;;4.40;;
57249;SDS011;43102;52.014;-0.680;2023-04-15T02:00:01;6.00;;;4.40;;
57249;SDS011;43102;52.014;-0.680;2023-04-15T02:01:01;6.00;;;4.40;;
57249;SDS011;43102;52.014;-0.680;2023-04-15T02:02:00;6.00;;;4.40;;
57249;SDS011;43102;52.014;-0.680;2023-04-15T02:03:00;6.00;;;4.40;;
57249;SDS011;43102;52.014;-0.680;2023-04-15T02:04:00;6.00;;;4.40;;
57249;SDS011;43102;52.014;-0.680;2023-04-15T02:05:00;6.00;;;4.40;;
57249;SDS011;43102;52.014;-0.680;2023-04-15T02:06:00;6.00;;;4.40;;
57249;SDS011;43102;52.014;-0.680;2023-04-15T02:07:00;6.00;;;4.40;;
57249;SDS011;43102;52.014;-0.680;2023-04-15T02:08:00;6.00;;;4.40;;
57249;SDS011;43102;52.014;-0.680;2023-04-15T02:09:01;6.00;;;4.40;;
57249;SDS011;43102;52.014;-0.680;2023-04-15T02:10:00;6.00;;;4.40;;
57249;SDS011;43102;52.014;-0.680;2023-04-15T02:11:00;6.00;;;4.40;;
57249;SDS011;43102;52.014;-0.680;2023-04-15T02:12:00;6.00;;;4.40;;
57249;SDS011;43102;52.014;-0.680;2023-04-15T02:13:00;6.00;;;4.40;;
57249;SDS011;43102;52.014;-0.680;2023-04-15T02:14:00;6.00;;;4.40;;
57249;SDS011;43102;52.014;-0.680;2023-04-15T02:15:00;5.80;;;4.50;;
57249;SDS011;43102;52.014;-0.680;2023-04-15T02:16:00;5.80;;;4.50;;
57249;SDS011;43102;52.014;-0.680;2023-04-15T02:17:06;5.80;;;4.50;;
57249;SDS011;43102;52.014;-0.680;2023-04-15T02:18:00;5.80;;;4.50;;
57249;SDS011;43102;52.014;-0.680;2023-04-15T02:19:01;5.80;;;4.50;;
57249;SDS011;43102;52.014;-0.680;2023-04-15T02:20:01;5.80;;;4.50;;
57249;SDS011;43102;52.014;-0.680;2023-04-15T02:21:00;5.80;;;4.50;;
57249;SDS011;43102;52.014;-0.680;2023-04-15T02:22:01;5.80;;;4.50;;
57249;SDS011;43102;52.014;-0.680;2023-04-15T02:23:00;5.80;;;4.50;;
57249;SDS011;43102;52.014;-0.680;2023-04-15T02:24:01;5.80;;;4.50;;
57249;SDS011;43102;52.014;-0.680;2023-04-15T02:25:00;5.80;;;4.50;;
57249;SDS011;43102;52.014;-0.680;2023-04-15T02:26:00;5.80;;;4.50;;
57249;SDS011;43102;52.014;-0.680;2023-04-15T02:27:01;5.80;;;4.50;;
57249;SDS011;43102;52.014;-0.680;2023-04-15T02:28:00;5.80;;;4.50;;
57249;SDS011;43102;52.014;-0.680;2023-04-15T02:29:01;5.80;;;4.50;;
57249;SDS011;43102;52.014;-0.680;2023-04-15T02:30:00;5.80;;;4.50;;
57249;SDS011;43102;52.014;-0.680;2023-04-15T02:31:05;5.80;;;4.50;;
57249;SDS011;43102;52.014;-0.680;2023-04-15T02:32:00;5.80;;;4.50;;
57249;SDS011;43102;52.014;-0.680;2023-04-15T02:33:00;5.80;;;4.50;;
57249;SDS011;43102;52.014;-0.680;2023-04-15T02:34:03;5.80;;;4.50;;
57249;SDS011;43102;52.014;-0.680;2023-04-15T02:35:03;5.80;;;4.50;;
57249;SDS011;43102;52.014;-0.680;2023-04-15T02:36:00;5.80;;;4.50;;
57249;SDS011;43102;52.014;-0.680;2023-04-15T02:37:02;5.80;;;4.50;;
57249;SDS011;43102;52.014;-0.680;2023-04-15T02:38:02;5.80;;;4.50;;
57249;SDS011;43102;52.014;-0.680;2023-04-15T02:39:01;5.80;;;4.50;;
57249;SDS011;43102;52.014;-0.680;2023-04-15T02:40:00;5.80;;;4.50;;
57249;SDS011;43102;52.014;-0.680;2023-04-15T02:41:00;5.80;;;4.50;;
57249;SDS011;43102;52.014;-0.680;2023-04-15T02:42:00;5.80;;;4.50;;
57249;SDS011;43102;52.014;-0.680;2023-04-15T02:43:00;5.80;;;4.50;;
57249;SDS011;43102;52.014;-0.680;2023-04-15T02:44:00;5.80;;;4.50;;
57249;SDS011;43102;52.014;-0.680;2023-04-15T02:45:00;10.30;;;7.20;;
57249;SDS011;43102;52.014;-0.680;2023-04-15T02:46:00;10.30;;;7.20;;
57249;SDS011;43102;52.014;-0.680;2023-04-15T02:47:00;10.30;;;7.20;;
57249;SDS011;43102;52.014;-0.680;2023-04-15T02:48:04;10.30;;;7.20;;
57249;SDS011;43102;52.014;-0.680;2023-04-15T02:49:02;10.30;;;7.20;;
57249;SDS011;43102;52.014;-0.680;2023-04-15T02:50:02;10.30;;;7.20;;
57249;SDS011;43102;52.014;-0.680;2023-04-15T02:51:10;10.30;;;7.20;;
57249;SDS011;43102;52.014;-0.680;2023-04-15T02:52:00;10.30;;;7.20;;
57249;SDS011;43102;52.014;-0.680;2023-04-15T02:53:01;10.30;;;7.20;;
57249;SDS011;43102;52.014;-0.680;2023-04-15T02:54:00;10.30;;;7.20;;
57249;SDS011;43102;52.014;-0.680;2023-04-15T02:55:01;10.30;;;7.20;;
57249;SDS011;43102;52.014;-0.680;2023-04-15T02:56:00;10.30;;;7.20;;
57249;SDS011;43102;52.014;-0.680;2023-04-15T02:57:00;10.30;;;7.20;;
57249;SDS011;43102;52.014;-0.680;2023-04-15T02:58:00;10.30;;;7.20;;
57249;SDS011;43102;52.014;-0.680;2023-04-15T02:59:00;10.30;;;7.20;;
57249;SDS011;43102;52.014;-0.680;2023-04-15T03:00:00;10.30;;;7.20;;
57249;SDS011;43102;52.014;-0.680;2023-04-15T03:01:00;10.30;;;7.20;;
57249;SDS011;43102;52.014;-0.680;2023-04-15T03:02:00;10.30;;;7.20;;
57249;SDS011;43102;52.014;-0.680;2023-04-15T03:03:03;10.30;;;7.20;;
57249;SDS011;43102;52.014;-0.680;2023-04-15T03:04:00;10.30;;;7.20;;
57249;SDS011;43102;52.014;-0.680;2023-04-15T03:05:00;10.30;;;7.20;;
57249;SDS011;43102;52.014;-0.680;2023-04-15T03:06:00;10.30;;;7.20;;
57249;SDS011;43102;52.014;-0.680;2023-04-15T03:07:01;10.30;;;7.20;;
57249;SDS011;43102;52.014;-0.680;2023-04-15T03:08:00;10.30;;;7.20;;
57249;SDS011;43102;52.014;-0.680;2023-04-15T03:09:01;10.30;;;7.20;;
57249;SDS011;43102;52.014;-0.680;2023-04-15T03:10:00;10.30;;;7.20;;
57249;SDS011;43102;52.014;-0.680;2023-04-15T03:11:01;10.30;;;7.20;;
57249;SDS011;43102;52.014;-0.680;2023-04-15T03:12:00;10.30;;;7.20;;
57249;SDS011;43102;52.014;-0.680;2023-04-15T03:13:00;10.30;;;7.20;;
57249;SDS011;43102;52.014;-0.680;2023-04-15T03:14:00;10.30;;;7.20;;
57249;SDS011;43102;52.014;-0.680;2023-04-15T03:15:01;9.90;;;7.30;;
57249;SDS011;43102;52.014;-0.680;2023-04-15T03:16:01;9.90;;;7.30;;
57249;SDS011;43102;52.014;-0.680;2023-04-15T03:17:00;9.90;;;7.30;;
57249;SDS011;43102;52.014;-0.680;2023-04-15T03:18:00;9.90;;;7.30;;
57249;SDS011;43102;52.014;-0.680;2023-04-15T03:19:00;9.90;;;7.30;;
57249;SDS011;43102;52.014;-0.680;2023-04-15T03:20:02;9.90;;;7.30;;
57249;SDS011;43102;52.014;-0.680;2023-04-15T03:21:00;9.90;;;7.30;;
57249;SDS011;43102;52.014;-0.680;2023-04-15T03:22:00;9.90;;;7.30;;
57249;SDS011;43102;52.014;-0.680;2023-04-15T03:23:00;9.90;;;7.30;;
57249;SDS011;43102;52.014;-0.680;2023-04-15T03:24:00;9.90;;;7.30;;
57249;SDS011;43102;52.014;-0.680;2023-04-15T03:25:00;9.90;;;7.30;;
57249;SDS011;43102;52.014;-0.680;2023-04-15T03:26:02;9.90;;;7.30;;
57249;SDS011;43102;52.014;-0.680;2023-04-15T03:27:00;9.90;;;7.30;;
57249;SDS011;43102;52.014;-0.680;2023-04-15T03:28:00;9.90;;;7.30;;
57249;SDS011;43102;52.014;-0.680;2023-04-15T03:29:01;9.90;;;7.30;;
57249;SDS011;43102;52.014;-0.680;2023-04-15T03:30:00;9.90;;;7.30;;
57249;SDS011;43102;52.014;-0.680;2023-04-15T03:31:00;9.90;;;7.30;;
57249;SDS011;43102;52.014;-0.680;2023-04-15T03:32:00;9.90;;;7.30;;
57249;SDS011;43102;52.014;-0.680;2023-04-15T03:33:00;9.90;;;7.30;;
57249;SDS011;43102;52.014;-0.680;2023-04-15T03:34:00;9.90;;;7.30;;
57249;SDS011;43102;52.014;-0.680;2023-04-15T03:35:00;9.90;;;7.30;;
57249;SDS011;43102;52.014;-0.680;2023-04-15T03:36:00;9.90;;;7.30;;
57249;SDS011;43102;52.014;-0.680;2023-04-15T03:37:00;9.90;;;7.30;;
57249;SDS011;43102;52.014;-0.680;2023-04-15T03:38:00;9.90;;;7.30;;
57249;SDS011;43102;52.014;-0.680;2023-04-15T03:39:02;9.90;;;7.30;;
57249;SDS011;43102;52.014;-0.680;2023-04-15T03:40:01;9.90;;;7.30;;
57249;SDS011;43102;52.014;-0.680;2023-04-15T03:41:00;9.90;;;7.30;;
57249;SDS011;43102;52.014;-0.680;2023-04-15T03:42:00;9.90;;;7.30;;
57249;SDS011;43102;52.014;-0.680;2023-04-15T03:43:00;9.90;;;7.30;;
57249;SDS011;43102;52.014;-0.680;2023-04-15T03:44:00;9.90;;;7.30;;
57249;SDS011;43102;52.014;-0.680;2023-04-15T03:45:00;11.40;;;8.00;;
57249;SDS011;43102;52.014;-0.680;2023-04-15T03:46:02;11.40;;;8.00;;
57249;SDS011;43102;52.014;-0.680;2023-04-15T03:47:00;11.40;;;8.00;;
57249;SDS011;43102;52.014;-0.680;2023-04-15T03:48:10;11.40;;;8.00;;
57249;SDS011;43102;52.014;-0.680;2023-04-15T03:49:01;11.40;;;8.00;;
57249;SDS011;43102;52.014;-0.680;2023-04-15T03:50:00;11.40;;;8.00;;
57249;SDS011;43102;52.014;-0.680;2023-04-15T03:51:01;11.40;;;8.00;;
57249;SDS011;43102;52.014;-0.680;2023-04-15T03:52:00;11.40;;;8.00;;
57249;SDS011;43102;52.014;-0.680;2023-04-15T03:53:00;11.40;;;8.00;;
57249;SDS011;43102;52.014;-0.680;2023-04-15T03:54:01;11.40;;;8.00;;
57249;SDS011;43102;52.014;-0.680;2023-04-15T03:55:00;11.40;;;8.00;;
57249;SDS011;43102;52.014;-0.680;2023-04-15T03:56:00;11.40;;;8.00;;
57249;SDS011;43102;52.014;-0.680;2023-04-15T03:57:00;11.40;;;8.00;;
57249;SDS011;43102;52.014;-0.680;2023-04-15T03:58:00;11.40;;;8.00;;
57249;SDS011;43102;52.014;-0.680;2023-04-15T03:59:00;11.40;;;8.00;;
57249;SDS011;43102;52.014;-0.680;2023-04-15T04:00:00;11.40;;;8.00;;
57249;SDS011;43102;52.014;-0.680;2023-04-15T04:01:00;11.40;;;8.00;;
57249;SDS011;43102;52.014;-0.680;2023-04-15T04:02:00;11.40;;;8.00;;
57249;SDS011;43102;52.014;-0.680;2023-04-15T04:03:00;11.40;;;8.00;;
57249;SDS011;43102;52.014;-0.680;2023-04-15T04:04:01;11.40;;;8.00;;
57249;SDS011;43102;52.014;-0.680;2023-04-15T04:05:00;11.40;;;8.00;;
57249;SDS011;43102;52.014;-0.680;2023-04-15T04:06:00;11.40;;;8.00;;
57249;SDS011;43102;52.014;-0.680;2023-04-15T04:07:00;11.40;;;8.00;;
57249;SDS011;43102;52.014;-0.680;2023-04-15T04:08:00;11.40;;;8.00;;
57249;SDS011;43102;52.014;-0.680;2023-04-15T04:09:00;11.40;;;8.00;;
57249;SDS011;43102;52.014;-0.680;2023-04-15T04:10:02;11.40;;;8.00;;
57249;SDS011;43102;52.014;-0.680;2023-04-15T04:11:00;11.40;;;8.00;;
57249;SDS011;43102;52.014;-0.680;2023-04-15T04:12:02;11.40;;;8.00;;
57249;SDS011;43102;52.014;-0.680;2023-04-15T04:13:00;11.40;;;8.00;;
57249;SDS011;43102;52.014;-0.680;2023-04-15T04:14:00;11.40;;;8.00;;
57249;SDS011;43102;52.014;-0.680;2023-04-15T04:15:00;9.30;;;7.80;;
57249;SDS011;43102;52.014;-0.680;2023-04-15T04:16:00;9.30;;;7.80;;
57249;SDS011;43102;52.014;-0.680;2023-04-15T04:17:00;9.30;;;7.80;;
57249;SDS011;43102;52.014;-0.680;2023-04-15T04:18:00;9.30;;;7.80;;
57249;SDS011;43102;52.014;-0.680;2023-04-15T04:19:00;9.30;;;7.80;;
57249;SDS011;43102;52.014;-0.680;2023-04-15T04:20:00;9.30;;;7.80;;
57249;SDS011;43102;52.014;-0.680;2023-04-15T04:21:00;9.30;;;7.80;;
57249;SDS011;43102;52.014;-0.680;2023-04-15T04:22:00;9.30;;;7.80;;
57249;SDS011;43102;52.014;-0.680;2023-04-15T04:23:00;9.30;;;7.80;;
57249;SDS011;43102;52.014;-0.680;2023-04-15T04:24:00;9.30;;;7.80;;
57249;SDS011;43102;52.014;-0.680;2023-04-15T04:25:01;9.30;;;7.80;;
57249;SDS011;43102;52.014;-0.680;2023-04-15T04:26:00;9.30;;;7.80;;
57249;SDS011;43102;52.014;-0.680;2023-04-15T04:27:01;9.30;;;7.80;;
57249;SDS011;43102;52.014;-0.680;2023-04-15T04:28:00;9.30;;;7.80;;
57249;SDS011;43102;52.014;-0.680;2023-04-15T04:29:00;9.30;;;7.80;;
57249;SDS011;43102;52.014;-0.680;2023-04-15T04:30:01;9.30;;;7.80;;
57249;SDS011;43102;52.014;-0.680;2023-04-15T04:31:00;9.30;;;7.80;;
57249;SDS011;43102;52.014;-0.680;2023-04-15T04:32:00;9.30;;;7.80;;
57249;SDS011;43102;52.014;-0.680;2023-04-15T04:33:00;9.30;;;7.80;;
57249;SDS011;43102;52.014;-0.680;2023-04-15T04:34:00;9.30;;;7.80;;
57249;SDS011;43102;52.014;-0.680;2023-04-15T04:35:00;9.30;;;7.80;;
57249;SDS011;43102;52.014;-0.680;2023-04-15T04:36:00;9.30;;;7.80;;
57249;SDS011;43102;52.014;-0.680;2023-04-15T04:37:00;9.30;;;7.80;;
57249;SDS011;43102;52.014;-0.680;2023-04-15T04:38:00;9.30;;;7.80;;
57249;SDS011;43102;52.014;-0.680;2023-04-15T04:39:01;9.30;;;7.80;;
57249;SDS011;43102;52.014;-0.680;2023-04-15T04:40:00;9.30;;;7.80;;
57249;SDS011;43102;52.014;-0.680;2023-04-15T04:41:00;9.30;;;7.80;;
57249;SDS011;43102;52.014;-0.680;2023-04-15T04:42:00;9.30;;;7.80;;
57249;SDS011;43102;52.014;-0.680;2023-04-15T04:43:00;9.30;;;7.80;;
57249;SDS011;43102;52.014;-0.680;2023-04-15T04:44:00;9.30;;;7.80;;
57249;SDS011;43102;52.014;-0.680;2023-04-15T04:45:00;9.30;;;7.80;;
57249;SDS011;43102;52.014;-0.680;2023-04-15T04:46:00;10.00;;;7.70;;
57249;SDS011;43102;52.014;-0.680;2023-04-15T04:47:00;10.00;;;7.70;;
57249;SDS011;43102;52.014;-0.680;2023-04-15T04:48:00;10.00;;;7.70;;
57249;SDS011;43102;52.014;-0.680;2023-04-15T04:49:00;10.00;;;7.70;;
57249;SDS011;43102;52.014;-0.680;2023-04-15T04:50:00;10.00;;;7.70;;
57249;SDS011;43102;52.014;-0.680;2023-04-15T04:51:00;10.00;;;7.70;;
57249;SDS011;43102;52.014;-0.680;2023-04-15T04:52:00;10.00;;;7.70;;
57249;SDS011;43102;52.014;-0.680;2023-04-15T04:53:00;10.00;;;7.70;;
57249;SDS011;43102;52.014;-0.680;2023-04-15T04:54:03;10.00;;;7.70;;
57249;SDS011;43102;52.014;-0.680;2023-04-15T04:55:00;10.00;;;7.70;;
57249;SDS011;43102;52.014;-0.680;2023-04-15T04:56:00;10.00;;;7.70;;
57249;SDS011;43102;52.014;-0.680;2023-04-15T04:57:00;10.00;;;7.70;;
57249;SDS011;43102;52.014;-0.680;2023-04-15T04:58:00;10.00;;;7.70;;
57249;SDS011;43102;52.014;-0.680;2023-04-15T04:59:00;10.00;;;7.70;;
57249;SDS011;43102;52.014;-0.680;2023-04-15T05:00:01;10.00;;;7.70;;
57249;SDS011;43102;52.014;-0.680;2023-04-15T05:01:01;10.00;;;7.70;;
57249;SDS011;43102;52.014;-0.680;2023-04-15T05:02:00;10.00;;;7.70;;
57249;SDS011;43102;52.014;-0.680;2023-04-15T05:03:00;10.00;;;7.70;;
57249;SDS011;43102;52.014;-0.680;2023-04-15T05:04:00;10.00;;;7.70;;
57249;SDS011;43102;52.014;-0.680;2023-04-15T05:05:00;10.00;;;7.70;;
57249;SDS011;43102;52.014;-0.680;2023-04-15T05:06:02;10.00;;;7.70;;
57249;SDS011;43102;52.014;-0.680;2023-04-15T05:07:00;10.00;;;7.70;;
57249;SDS011;43102;52.014;-0.680;2023-04-15T05:08:01;10.00;;;7.70;;
57249;SDS011;43102;52.014;-0.680;2023-04-15T05:09:01;10.00;;;7.70;;
57249;SDS011;43102;52.014;-0.680;2023-04-15T05:10:00;10.00;;;7.70;;
57249;SDS011;43102;52.014;-0.680;2023-04-15T05:11:00;10.00;;;7.70;;
57249;SDS011;43102;52.014;-0.680;2023-04-15T05:12:01;10.00;;;7.70;;
57249;SDS011;43102;52.014;-0.680;2023-04-15T05:13:00;10.00;;;7.70;;
57249;SDS011;43102;52.014;-0.680;2023-04-15T05:14:01;10.00;;;7.70;;
57249;SDS011;43102;52.014;-0.680;2023-04-15T05:15:00;10.00;;;7.70;;
57249;SDS011;43102;52.014;-0.680;2023-04-15T05:16:00;10.80;;;8.50;;
57249;SDS011;43102;52.014;-0.680;2023-04-15T05:17:00;10.80;;;8.50;;
57249;SDS011;43102;52.014;-0.680;2023-04-15T05:18:00;10.80;;;8.50;;
57249;SDS011;43102;52.014;-0.680;2023-04-15T05:19:00;10.80;;;8.50;;
57249;SDS011;43102;52.014;-0.680;2023-04-15T05:20:02;10.80;;;8.50;;
57249;SDS011;43102;52.014;-0.680;2023-04-15T05:21:01;10.80;;;8.50;;
57249;SDS011;43102;52.014;-0.680;2023-04-15T05:22:00;10.80;;;8.50;;
57249;SDS011;43102;52.014;-0.680;2023-04-15T05:23:00;10.80;;;8.50;;
57249;SDS011;43102;52.014;-0.680;2023-04-15T05:24:00;10.80;;;8.50;;
57249;SDS011;43102;52.014;-0.680;2023-04-15T05:25:00;10.80;;;8.50;;
57249;SDS011;43102;52.014;-0.680;2023-04-15T05:26:00;10.80;;;8.50;;
57249;SDS011;43102;52.014;-0.680;2023-04-15T05:27:01;10.80;;;8.50;;
57249;SDS011;43102;52.014;-0.680;2023-04-15T05:28:00;10.80;;;8.50;;
57249;SDS011;43102;52.014;-0.680;2023-04-15T05:29:01;10.80;;;8.50;;
57249;SDS011;43102;52.014;-0.680;2023-04-15T05:30:00;10.80;;;8.50;;
57249;SDS011;43102;52.014;-0.680;2023-04-15T05:31:00;10.80;;;8.50;;
57249;SDS011;43102;52.014;-0.680;2023-04-15T05:32:00;10.80;;;8.50;;
57249;SDS011;43102;52.014;-0.680;2023-04-15T05:33:00;10.80;;;8.50;;
57249;SDS011;43102;52.014;-0.680;2023-04-15T05:34:00;10.80;;;8.50;;
57249;SDS011;43102;52.014;-0.680;2023-04-15T05:35:00;10.80;;;8.50;;
57249;SDS011;43102;52.014;-0.680;2023-04-15T05:36:00;10.80;;;8.50;;
57249;SDS011;43102;52.014;-0.680;2023-04-15T05:37:01;10.80;;;8.50;;
57249;SDS011;43102;52.014;-0.680;2023-04-15T05:38:00;10.80;;;8.50;;
57249;SDS011;43102;52.014;-0.680;2023-04-15T05:39:01;10.80;;;8.50;;
57249;SDS011;43102;52.014;-0.680;2023-04-15T05:40:00;10.80;;;8.50;;
57249;SDS011;43102;52.014;-0.680;2023-04-15T05:41:00;10.80;;;8.50;;
57249;SDS011;43102;52.014;-0.680;2023-04-15T05:42:01;10.80;;;8.50;;
57249;SDS011;43102;52.014;-0.680;2023-04-15T05:43:00;10.80;;;8.50;;
57249;SDS011;43102;52.014;-0.680;2023-04-15T05:44:00;10.80;;;8.50;;
57249;SDS011;43102;52.014;-0.680;2023-04-15T05:45:00;10.80;;;8.50;;
57249;SDS011;43102;52.014;-0.680;2023-04-15T05:46:00;15.30;;;11.00;;
57249;SDS011;43102;52.014;-0.680;2023-04-15T05:47:02;15.30;;;11.00;;
57249;SDS011;43102;52.014;-0.680;2023-04-15T05:48:00;15.30;;;11.00;;
57249;SDS011;43102;52.014;-0.680;2023-04-15T05:49:01;15.30;;;11.00;;
57249;SDS011;43102;52.014;-0.680;2023-04-15T05:50:00;15.30;;;11.00;;
57249;SDS011;43102;52.014;-0.680;2023-04-15T05:51:00;15.30;;;11.00;;
57249;SDS011;43102;52.014;-0.680;2023-04-15T05:52:00;15.30;;;11.00;;
57249;SDS011;43102;52.014;-0.680;2023-04-15T05:53:01;15.30;;;11.00;;